sensor_id;sensor_type;location;lat;lon;timestamp;P1;durP1;ratioP1;P2;durP2;ratioP2
33357;SDS011;19717;42.614;23.418;2022-12-07T00:01:15;4.78;;;3.05;;
33357;SDS011;19717;42.614;23.418;2022-12-07T00:03:42;2.40;;;2.15;;
33357;SDS011;19717;42.614;23.418;2022-12-07T00:06:10;5.90;;;2.15;;
33357;SDS011;19717;42.614;23.418;2022-12-07T00:08:56;6.30;;;2.40;;
33357;SDS011;19717;42.614;23.418;2022-12-07T00:11:22;2.25;;;1.88;;
33357;SDS011;19717;42.614;23.418;2022-12-07T00:13:55;5.15;;;3.25;;
33357;SDS011;19717;42.614;23.418;2022-12-07T00:16:23;14.98;;;4.28;;
33357;SDS011;19717;42.614;23.418;2022-12-07T00:18:49;16.10;;;5.97;;
33357;SDS011;19717;42.614;23.418;2022-12-07T00:21:16;8.63;;;4.25;;
33357;SDS011;19717;42.614;23.418;2022-12-07T00:23:43;8.95;;;6.05;;
33357;SDS011;19717;42.614;23.418;2022-12-07T00:26:11;10.20;;;5.00;;
33357;SDS011;19717;42.614;23.418;2022-12-07T00:28:37;10.90;;;4.38;;
33357;SDS011;19717;42.614;23.418;2022-12-07T00:31:04;13.27;;;4.15;;
33357;SDS011;19717;42.614;23.418;2022-12-07T00:33:32;4.55;;;4.10;;
33357;SDS011;19717;42.614;23.418;2022-12-07T00:35:58;6.30;;;4.72;;
33357;SDS011;19717;42.614;23.418;2022-12-07T00:38:27;6.15;;;4.53;;
33357;SDS011;19717;42.614;23.418;2022-12-07T00:40:55;7.18;;;3.47;;
33357;SDS011;19717;42.614;23.418;2022-12-07T00:43:21;3.53;;;2.72;;
33357;SDS011;19717;42.614;23.418;2022-12-07T00:45:47;2.40;;;2.22;;
33357;SDS011;19717;42.614;23.418;2022-12-07T00:48:13;3.85;;;2.75;;
33357;SDS011;19717;42.614;23.418;2022-12-07T00:50:39;4.55;;;3.10;;
33357;SDS011;19717;42.614;23.418;2022-12-07T00:53:05;8.82;;;4.28;;
33357;SDS011;19717;42.614;23.418;2022-12-07T00:55:34;8.73;;;4.88;;
33357;SDS011;19717;42.614;23.418;2022-12-07T00:58:01;15.35;;;9.85;;
33357;SDS011;19717;42.614;23.418;2022-12-07T01:00:27;3.72;;;2.53;;
33357;SDS011;19717;42.614;23.418;2022-12-07T01:02:53;8.65;;;5.90;;
33357;SDS011;19717;42.614;23.418;2022-12-07T01:05:19;5.30;;;3.95;;
33357;SDS011;19717;42.614;23.418;2022-12-07T01:07:45;8.65;;;5.30;;
33357;SDS011;19717;42.614;23.418;2022-12-07T01:10:12;16.35;;;7.00;;
33357;SDS011;19717;42.614;23.418;2022-12-07T01:12:38;6.97;;;5.25;;
33357;SDS011;19717;42.614;23.418;2022-12-07T01:15:04;8.38;;;5.78;;
33357;SDS011;19717;42.614;23.418;2022-12-07T01:17:30;8.77;;;3.92;;
33357;SDS011;19717;42.614;23.418;2022-12-07T01:19:57;6.95;;;3.42;;
33357;SDS011;19717;42.614;23.418;2022-12-07T01:22:23;5.85;;;3.72;;
33357;SDS011;19717;42.614;23.418;2022-12-07T01:24:49;5.38;;;4.60;;
33357;SDS011;19717;42.614;23.418;2022-12-07T01:27:15;7.53;;;3.05;;
33357;SDS011;19717;42.614;23.418;2022-12-07T01:29:41;3.50;;;2.33;;
33357;SDS011;19717;42.614;23.418;2022-12-07T01:32:07;1.67;;;1.58;;
33357;SDS011;19717;42.614;23.418;2022-12-07T01:34:33;6.65;;;4.50;;
33357;SDS011;19717;42.614;23.418;2022-12-07T01:36:59;4.00;;;2.38;;
33357;SDS011;19717;42.614;23.418;2022-12-07T01:39:25;18.20;;;2.67;;
33357;SDS011;19717;42.614;23.418;2022-12-07T01:41:52;3.60;;;3.17;;
33357;SDS011;19717;42.614;23.418;2022-12-07T01:44:19;4.13;;;3.00;;
33357;SDS011;19717;42.614;23.418;2022-12-07T01:46:46;2.40;;;2.15;;
33357;SDS011;19717;42.614;23.418;2022-12-07T01:49:24;1.70;;;1.45;;
33357;SDS011;19717;42.614;23.418;2022-12-07T01:51:52;4.43;;;3.03;;
33357;SDS011;19717;42.614;23.418;2022-12-07T01:54:20;3.67;;;2.33;;
33357;SDS011;19717;42.614;23.418;2022-12-07T01:56:52;2.33;;;1.70;;
33357;SDS011;19717;42.614;23.418;2022-12-07T02:01:44;2.20;;;1.30;;
33357;SDS011;19717;42.614;23.418;2022-12-07T02:04:11;2.10;;;1.05;;
33357;SDS011;19717;42.614;23.418;2022-12-07T02:06:37;2.58;;;1.73;;
33357;SDS011;19717;42.614;23.418;2022-12-07T02:09:04;2.92;;;1.77;;
33357;SDS011;19717;42.614;23.418;2022-12-07T02:11:30;5.18;;;2.03;;
33357;SDS011;19717;42.614;23.418;2022-12-07T02:13:56;2.33;;;1.95;;
33357;SDS011;19717;42.614;23.418;2022-12-07T02:21:55;1.55;;;1.45;;
33357;SDS011;19717;42.614;23.418;2022-12-07T02:27:10;2.92;;;1.75;;
33357;SDS011;19717;42.614;23.418;2022-12-07T02:37:08;3.80;;;2.13;;
33357;SDS011;19717;42.614;23.418;2022-12-07T02:39:53;1.20;;;1.00;;
33357;SDS011;19717;42.614;23.418;2022-12-07T02:42:23;1.58;;;1.48;;
33357;SDS011;19717;42.614;23.418;2022-12-07T02:44:50;5.55;;;2.75;;
33357;SDS011;19717;42.614;23.418;2022-12-07T02:47:17;2.50;;;1.77;;
33357;SDS011;19717;42.614;23.418;2022-12-07T02:49:45;8.25;;;2.92;;
33357;SDS011;19717;42.614;23.418;2022-12-07T02:52:11;2.58;;;2.33;;
33357;SDS011;19717;42.614;23.418;2022-12-07T02:54:38;1.48;;;1.38;;
33357;SDS011;19717;42.614;23.418;2022-12-07T03:07:33;4.25;;;2.35;;
33357;SDS011;19717;42.614;23.418;2022-12-07T03:12:32;3.88;;;2.83;;
33357;SDS011;19717;42.614;23.418;2022-12-07T03:15:11;2.63;;;2.28;;
33357;SDS011;19717;42.614;23.418;2022-12-07T03:17:40;4.40;;;2.40;;
33357;SDS011;19717;42.614;23.418;2022-12-07T03:20:08;9.80;;;2.15;;
33357;SDS011;19717;42.614;23.418;2022-12-07T03:22:34;8.65;;;2.00;;
33357;SDS011;19717;42.614;23.418;2022-12-07T03:25:04;4.53;;;2.47;;
33357;SDS011;19717;42.614;23.418;2022-12-07T03:27:42;2.22;;;1.52;;
33357;SDS011;19717;42.614;23.418;2022-12-07T03:30:12;8.35;;;5.85;;
33357;SDS011;19717;42.614;23.418;2022-12-07T03:35:42;3.95;;;2.97;;
33357;SDS011;19717;42.614;23.418;2022-12-07T03:43:14;8.00;;;4.13;;
33357;SDS011;19717;42.614;23.418;2022-12-07T03:45:42;4.25;;;3.83;;
33357;SDS011;19717;42.614;23.418;2022-12-07T03:50:43;5.78;;;2.28;;
33357;SDS011;19717;42.614;23.418;2022-12-07T03:53:18;5.82;;;2.72;;
33357;SDS011;19717;42.614;23.418;2022-12-07T03:55:45;1.70;;;1.60;;
33357;SDS011;19717;42.614;23.418;2022-12-07T03:58:13;2.15;;;1.65;;
33357;SDS011;19717;42.614;23.418;2022-12-07T04:00:41;2.00;;;1.58;;
33357;SDS011;19717;42.614;23.418;2022-12-07T04:03:08;4.40;;;3.13;;
33357;SDS011;19717;42.614;23.418;2022-12-07T04:05:34;2.90;;;2.55;;
33357;SDS011;19717;42.614;23.418;2022-12-07T04:08:00;2.50;;;1.50;;
33357;SDS011;19717;42.614;23.418;2022-12-07T04:10:26;1.92;;;1.35;;
33357;SDS011;19717;42.614;23.418;2022-12-07T04:12:52;8.68;;;2.35;;
33357;SDS011;19717;42.614;23.418;2022-12-07T04:15:18;2.78;;;2.47;;
33357;SDS011;19717;42.614;23.418;2022-12-07T04:17:45;2.28;;;1.48;;
33357;SDS011;19717;42.614;23.418;2022-12-07T04:20:11;1.17;;;1.05;;
33357;SDS011;19717;42.614;23.418;2022-12-07T04:22:37;3.42;;;2.30;;
33357;SDS011;19717;42.614;23.418;2022-12-07T04:25:03;1.77;;;1.45;;
33357;SDS011;19717;42.614;23.418;2022-12-07T04:27:29;0.68;;;0.68;;
33357;SDS011;19717;42.614;23.418;2022-12-07T04:29:55;2.03;;;1.75;;
33357;SDS011;19717;42.614;23.418;2022-12-07T04:32:22;2.97;;;2.25;;
33357;SDS011;19717;42.614;23.418;2022-12-07T04:34:48;2.30;;;1.65;;
33357;SDS011;19717;42.614;23.418;2022-12-07T04:37:14;2.40;;;1.88;;
33357;SDS011;19717;42.614;23.418;2022-12-07T04:39:40;2.55;;;1.60;;
33357;SDS011;19717;42.614;23.418;2022-12-07T04:42:06;1.70;;;1.55;;
33357;SDS011;19717;42.614;23.418;2022-12-07T04:44:32;3.15;;;2.40;;
33357;SDS011;19717;42.614;23.418;2022-12-07T04:46:59;3.65;;;2.25;;
33357;SDS011;19717;42.614;23.418;2022-12-07T04:49:25;3.70;;;2.20;;
33357;SDS011;19717;42.614;23.418;2022-12-07T04:51:51;4.40;;;2.20;;
33357;SDS011;19717;42.614;23.418;2022-12-07T04:54:18;5.93;;;2.33;;
33357;SDS011;19717;42.614;23.418;2022-12-07T04:56:44;3.40;;;1.90;;
33357;SDS011;19717;42.614;23.418;2022-12-07T04:59:11;4.00;;;2.28;;
33357;SDS011;19717;42.614;23.418;2022-12-07T05:01:37;2.10;;;1.92;;
33357;SDS011;19717;42.614;23.418;2022-12-07T05:04:03;7.28;;;2.95;;
33357;SDS011;19717;42.614;23.418;2022-12-07T05:06:29;2.20;;;2.03;;
33357;SDS011;19717;42.614;23.418;2022-12-07T05:08:55;3.47;;;1.90;;
33357;SDS011;19717;42.614;23.418;2022-12-07T05:11:21;3.63;;;2.85;;
33357;SDS011;19717;42.614;23.418;2022-12-07T05:14:13;4.53;;;2.83;;
33357;SDS011;19717;42.614;23.418;2022-12-07T05:16:39;6.55;;;5.28;;
33357;SDS011;19717;42.614;23.418;2022-12-07T05:19:06;6.50;;;4.57;;
33357;SDS011;19717;42.614;23.418;2022-12-07T05:21:32;26.77;;;9.27;;
33357;SDS011;19717;42.614;23.418;2022-12-07T05:23:58;15.35;;;6.53;;
33357;SDS011;19717;42.614;23.418;2022-12-07T05:26:24;9.73;;;6.65;;
33357;SDS011;19717;42.614;23.418;2022-12-07T05:28:51;4.35;;;3.83;;
33357;SDS011;19717;42.614;23.418;2022-12-07T05:31:17;17.10;;;9.70;;
33357;SDS011;19717;42.614;23.418;2022-12-07T05:33:43;14.90;;;7.35;;
33357;SDS011;19717;42.614;23.418;2022-12-07T05:36:09;8.63;;;6.43;;
33357;SDS011;19717;42.614;23.418;2022-12-07T05:38:35;5.10;;;3.15;;
33357;SDS011;19717;42.614;23.418;2022-12-07T05:41:02;3.92;;;3.28;;
33357;SDS011;19717;42.614;23.418;2022-12-07T05:43:29;5.32;;;3.78;;
33357;SDS011;19717;42.614;23.418;2022-12-07T05:45:57;5.45;;;2.40;;
33357;SDS011;19717;42.614;23.418;2022-12-07T05:48:24;7.45;;;3.95;;
33357;SDS011;19717;42.614;23.418;2022-12-07T05:50:50;13.52;;;5.22;;
33357;SDS011;19717;42.614;23.418;2022-12-07T05:53:16;4.30;;;2.72;;
33357;SDS011;19717;42.614;23.418;2022-12-07T05:55:43;23.35;;;12.07;;
33357;SDS011;19717;42.614;23.418;2022-12-07T05:58:09;10.95;;;5.95;;
33357;SDS011;19717;42.614;23.418;2022-12-07T06:00:54;2.80;;;2.60;;
33357;SDS011;19717;42.614;23.418;2022-12-07T06:03:20;7.82;;;4.53;;
33357;SDS011;19717;42.614;23.418;2022-12-07T06:05:46;4.15;;;3.80;;
33357;SDS011;19717;42.614;23.418;2022-12-07T06:08:12;13.23;;;2.83;;
33357;SDS011;19717;42.614;23.418;2022-12-07T06:10:39;6.80;;;3.03;;
33357;SDS011;19717;42.614;23.418;2022-12-07T06:13:06;3.92;;;2.97;;
33357;SDS011;19717;42.614;23.418;2022-12-07T06:15:32;2.58;;;2.35;;
33357;SDS011;19717;42.614;23.418;2022-12-07T06:17:58;4.03;;;2.97;;
33357;SDS011;19717;42.614;23.418;2022-12-07T06:20:24;1.90;;;1.48;;
33357;SDS011;19717;42.614;23.418;2022-12-07T06:22:50;8.90;;;2.13;;
33357;SDS011;19717;42.614;23.418;2022-12-07T06:25:16;1.33;;;1.23;;
33357;SDS011;19717;42.614;23.418;2022-12-07T06:27:43;2.92;;;2.08;;
33357;SDS011;19717;42.614;23.418;2022-12-07T06:30:09;3.05;;;1.85;;
33357;SDS011;19717;42.614;23.418;2022-12-07T06:32:36;5.18;;;2.67;;
33357;SDS011;19717;42.614;23.418;2022-12-07T06:35:02;3.55;;;2.20;;
33357;SDS011;19717;42.614;23.418;2022-12-07T06:37:28;8.88;;;3.17;;
33357;SDS011;19717;42.614;23.418;2022-12-07T06:39:54;7.78;;;4.93;;
33357;SDS011;19717;42.614;23.418;2022-12-07T06:42:21;5.75;;;3.75;;
33357;SDS011;19717;42.614;23.418;2022-12-07T06:44:47;9.85;;;5.03;;
33357;SDS011;19717;42.614;23.418;2022-12-07T06:47:14;2.25;;;1.45;;
33357;SDS011;19717;42.614;23.418;2022-12-07T06:49:40;2.60;;;1.95;;
33357;SDS011;19717;42.614;23.418;2022-12-07T06:52:06;11.90;;;4.68;;
33357;SDS011;19717;42.614;23.418;2022-12-07T06:54:32;12.73;;;7.50;;
33357;SDS011;19717;42.614;23.418;2022-12-07T06:56:58;13.43;;;8.02;;
33357;SDS011;19717;42.614;23.418;2022-12-07T06:59:24;21.60;;;9.43;;
33357;SDS011;19717;42.614;23.418;2022-12-07T07:01:50;14.77;;;7.85;;
33357;SDS011;19717;42.614;23.418;2022-12-07T07:04:16;12.68;;;8.88;;
33357;SDS011;19717;42.614;23.418;2022-12-07T07:06:42;16.38;;;11.35;;
33357;SDS011;19717;42.614;23.418;2022-12-07T07:09:08;17.23;;;10.20;;
33357;SDS011;19717;42.614;23.418;2022-12-07T07:11:35;23.45;;;10.60;;
33357;SDS011;19717;42.614;23.418;2022-12-07T07:14:01;14.05;;;8.98;;
33357;SDS011;19717;42.614;23.418;2022-12-07T07:16:28;9.93;;;6.55;;
33357;SDS011;19717;42.614;23.418;2022-12-07T07:18:55;10.45;;;6.60;;
33357;SDS011;19717;42.614;23.418;2022-12-07T07:21:21;7.88;;;5.50;;
33357;SDS011;19717;42.614;23.418;2022-12-07T07:23:47;8.73;;;5.75;;
33357;SDS011;19717;42.614;23.418;2022-12-07T07:26:13;11.63;;;5.85;;
33357;SDS011;19717;42.614;23.418;2022-12-07T07:28:39;15.23;;;7.55;;
33357;SDS011;19717;42.614;23.418;2022-12-07T07:31:05;21.23;;;7.78;;
33357;SDS011;19717;42.614;23.418;2022-12-07T07:33:31;8.35;;;7.07;;
33357;SDS011;19717;42.614;23.418;2022-12-07T07:35:57;17.10;;;5.70;;
33357;SDS011;19717;42.614;23.418;2022-12-07T07:38:23;10.40;;;6.15;;
33357;SDS011;19717;42.614;23.418;2022-12-07T07:40:49;7.38;;;5.47;;
33357;SDS011;19717;42.614;23.418;2022-12-07T07:43:16;13.45;;;5.00;;
33357;SDS011;19717;42.614;23.418;2022-12-07T07:45:42;6.57;;;4.68;;
33357;SDS011;19717;42.614;23.418;2022-12-07T07:48:08;8.02;;;3.60;;
33357;SDS011;19717;42.614;23.418;2022-12-07T07:50:34;4.60;;;2.92;;
33357;SDS011;19717;42.614;23.418;2022-12-07T07:53:00;7.45;;;3.53;;
33357;SDS011;19717;42.614;23.418;2022-12-07T07:55:26;7.03;;;3.92;;
33357;SDS011;19717;42.614;23.418;2022-12-07T07:57:52;7.18;;;4.03;;
33357;SDS011;19717;42.614;23.418;2022-12-07T08:00:18;8.68;;;4.82;;
33357;SDS011;19717;42.614;23.418;2022-12-07T08:02:44;13.60;;;5.55;;
33357;SDS011;19717;42.614;23.418;2022-12-07T08:05:11;8.60;;;5.88;;
33357;SDS011;19717;42.614;23.418;2022-12-07T08:07:37;9.10;;;4.80;;
33357;SDS011;19717;42.614;23.418;2022-12-07T08:10:03;15.15;;;6.30;;
33357;SDS011;19717;42.614;23.418;2022-12-07T08:12:30;9.13;;;5.90;;
33357;SDS011;19717;42.614;23.418;2022-12-07T08:14:56;6.57;;;4.72;;
33357;SDS011;19717;42.614;23.418;2022-12-07T08:17:22;11.10;;;5.47;;
33357;SDS011;19717;42.614;23.418;2022-12-07T08:19:48;12.90;;;6.10;;
33357;SDS011;19717;42.614;23.418;2022-12-07T08:22:14;6.70;;;4.80;;
33357;SDS011;19717;42.614;23.418;2022-12-07T08:24:40;7.40;;;4.82;;
33357;SDS011;19717;42.614;23.418;2022-12-07T08:27:06;9.10;;;5.88;;
33357;SDS011;19717;42.614;23.418;2022-12-07T08:29:32;7.18;;;3.58;;
33357;SDS011;19717;42.614;23.418;2022-12-07T08:31:58;9.98;;;4.07;;
33357;SDS011;19717;42.614;23.418;2022-12-07T08:34:26;10.82;;;4.95;;
33357;SDS011;19717;42.614;23.418;2022-12-07T08:36:52;7.07;;;4.53;;
33357;SDS011;19717;42.614;23.418;2022-12-07T08:39:18;6.35;;;3.85;;
33357;SDS011;19717;42.614;23.418;2022-12-07T08:41:45;8.75;;;4.80;;
33357;SDS011;19717;42.614;23.418;2022-12-07T08:44:11;11.23;;;6.50;;
33357;SDS011;19717;42.614;23.418;2022-12-07T08:46:41;7.30;;;5.22;;
33357;SDS011;19717;42.614;23.418;2022-12-07T08:51:36;7.60;;;4.05;;
33357;SDS011;19717;42.614;23.418;2022-12-07T08:54:04;6.82;;;4.07;;
33357;SDS011;19717;42.614;23.418;2022-12-07T08:56:31;12.82;;;6.68;;
33357;SDS011;19717;42.614;23.418;2022-12-07T08:58:57;3.85;;;3.45;;
33357;SDS011;19717;42.614;23.418;2022-12-07T09:01:24;11.30;;;3.38;;
33357;SDS011;19717;42.614;23.418;2022-12-07T09:03:50;6.90;;;5.22;;
33357;SDS011;19717;42.614;23.418;2022-12-07T09:06:16;8.68;;;4.25;;
33357;SDS011;19717;42.614;23.418;2022-12-07T09:08:43;5.88;;;3.67;;
33357;SDS011;19717;42.614;23.418;2022-12-07T09:11:11;5.25;;;3.97;;
33357;SDS011;19717;42.614;23.418;2022-12-07T09:13:37;11.65;;;4.03;;
33357;SDS011;19717;42.614;23.418;2022-12-07T09:16:03;10.93;;;5.75;;
33357;SDS011;19717;42.614;23.418;2022-12-07T09:18:29;3.47;;;2.67;;
33357;SDS011;19717;42.614;23.418;2022-12-07T09:20:56;5.15;;;3.83;;
33357;SDS011;19717;42.614;23.418;2022-12-07T09:23:22;5.85;;;3.65;;
33357;SDS011;19717;42.614;23.418;2022-12-07T09:25:48;9.02;;;5.30;;
33357;SDS011;19717;42.614;23.418;2022-12-07T09:28:14;8.02;;;4.32;;
33357;SDS011;19717;42.614;23.418;2022-12-07T09:30:47;7.70;;;3.95;;
33357;SDS011;19717;42.614;23.418;2022-12-07T09:33:13;18.40;;;4.63;;
33357;SDS011;19717;42.614;23.418;2022-12-07T09:35:46;5.30;;;2.65;;
33357;SDS011;19717;42.614;23.418;2022-12-07T09:38:12;6.03;;;4.88;;
33357;SDS011;19717;42.614;23.418;2022-12-07T09:40:38;3.42;;;2.47;;
33357;SDS011;19717;42.614;23.418;2022-12-07T09:43:05;7.07;;;3.88;;
33357;SDS011;19717;42.614;23.418;2022-12-07T09:45:35;9.00;;;4.53;;
33357;SDS011;19717;42.614;23.418;2022-12-07T09:48:02;2.00;;;1.88;;
33357;SDS011;19717;42.614;23.418;2022-12-07T09:50:29;4.45;;;3.47;;
33357;SDS011;19717;42.614;23.418;2022-12-07T09:52:58;7.47;;;3.20;;
33357;SDS011;19717;42.614;23.418;2022-12-07T09:55:30;4.55;;;3.70;;
33357;SDS011;19717;42.614;23.418;2022-12-07T09:57:56;14.10;;;3.97;;
33357;SDS011;19717;42.614;23.418;2022-12-07T10:00:23;6.90;;;4.28;;
33357;SDS011;19717;42.614;23.418;2022-12-07T10:05:58;8.98;;;3.88;;
33357;SDS011;19717;42.614;23.418;2022-12-07T10:08:07;8.35;;;4.88;;
33357;SDS011;19717;42.614;23.418;2022-12-07T10:10:34;11.40;;;5.07;;
33357;SDS011;19717;42.614;23.418;2022-12-07T10:13:06;7.03;;;4.30;;
33357;SDS011;19717;42.614;23.418;2022-12-07T10:18:17;6.38;;;2.78;;
33357;SDS011;19717;42.614;23.418;2022-12-07T10:20:45;7.68;;;4.10;;
33357;SDS011;19717;42.614;23.418;2022-12-07T10:23:16;9.02;;;4.32;;
33357;SDS011;19717;42.614;23.418;2022-12-07T10:25:42;5.30;;;4.47;;
33357;SDS011;19717;42.614;23.418;2022-12-07T10:30:47;5.07;;;3.28;;
33357;SDS011;19717;42.614;23.418;2022-12-07T10:35:59;7.75;;;2.15;;
33357;SDS011;19717;42.614;23.418;2022-12-07T10:38:25;5.47;;;2.65;;
33357;SDS011;19717;42.614;23.418;2022-12-07T10:41:05;3.63;;;3.08;;
33357;SDS011;19717;42.614;23.418;2022-12-07T10:43:31;4.53;;;3.47;;
33357;SDS011;19717;42.614;23.418;2022-12-07T10:46:18;5.47;;;2.95;;
33357;SDS011;19717;42.614;23.418;2022-12-07T10:49:03;3.63;;;2.40;;
33357;SDS011;19717;42.614;23.418;2022-12-07T11:06:57;4.20;;;2.67;;
33357;SDS011;19717;42.614;23.418;2022-12-07T11:11:54;9.82;;;3.20;;
33357;SDS011;19717;42.614;23.418;2022-12-07T11:14:28;6.68;;;3.63;;
33357;SDS011;19717;42.614;23.418;2022-12-07T11:16:59;4.17;;;3.00;;
33357;SDS011;19717;42.614;23.418;2022-12-07T11:19:32;4.35;;;2.70;;
33357;SDS011;19717;42.614;23.418;2022-12-07T11:22:20;4.63;;;3.67;;
33357;SDS011;19717;42.614;23.418;2022-12-07T11:38:26;7.53;;;4.03;;
33357;SDS011;19717;42.614;23.418;2022-12-07T11:40:50;4.32;;;2.47;;
33357;SDS011;19717;42.614;23.418;2022-12-07T11:45:44;7.97;;;4.00;;
33357;SDS011;19717;42.614;23.418;2022-12-07T11:48:32;8.32;;;3.38;;
33357;SDS011;19717;42.614;23.418;2022-12-07T11:51:00;6.75;;;3.75;;
33357;SDS011;19717;42.614;23.418;2022-12-07T12:00:50;7.90;;;3.17;;
33357;SDS011;19717;42.614;23.418;2022-12-07T12:03:21;9.05;;;4.82;;
33357;SDS011;19717;42.614;23.418;2022-12-07T12:05:49;6.63;;;4.33;;
33357;SDS011;19717;42.614;23.418;2022-12-07T12:08:20;10.65;;;5.07;;
33357;SDS011;19717;42.614;23.418;2022-12-07T12:13:27;7.32;;;3.65;;
33357;SDS011;19717;42.614;23.418;2022-12-07T12:18:48;4.65;;;3.13;;
33357;SDS011;19717;42.614;23.418;2022-12-07T12:21:17;11.40;;;3.33;;
33357;SDS011;19717;42.614;23.418;2022-12-07T12:23:45;6.30;;;3.33;;
33357;SDS011;19717;42.614;23.418;2022-12-07T12:26:15;7.97;;;4.00;;
33357;SDS011;19717;42.614;23.418;2022-12-07T12:28:49;5.65;;;3.47;;
33357;SDS011;19717;42.614;23.418;2022-12-07T12:33:46;4.47;;;3.92;;
33357;SDS011;19717;42.614;23.418;2022-12-07T12:51:57;5.93;;;3.58;;
33357;SDS011;19717;42.614;23.418;2022-12-07T12:54:27;6.18;;;3.33;;
33357;SDS011;19717;42.614;23.418;2022-12-07T12:59:32;3.92;;;2.33;;
33357;SDS011;19717;42.614;23.418;2022-12-07T13:20:45;3.50;;;2.33;;
33357;SDS011;19717;42.614;23.418;2022-12-07T13:23:12;3.80;;;2.13;;
33357;SDS011;19717;42.614;23.418;2022-12-07T13:25:44;5.40;;;2.30;;
33357;SDS011;19717;42.614;23.418;2022-12-07T13:28:15;7.93;;;3.58;;
33357;SDS011;19717;42.614;23.418;2022-12-07T13:31:01;4.15;;;3.28;;
33357;SDS011;19717;42.614;23.418;2022-12-07T13:33:29;11.65;;;4.60;;
33357;SDS011;19717;42.614;23.418;2022-12-07T13:35:56;11.00;;;4.20;;
33357;SDS011;19717;42.614;23.418;2022-12-07T13:41:05;7.43;;;3.45;;
33357;SDS011;19717;42.614;23.418;2022-12-07T13:43:55;6.53;;;3.35;;
33357;SDS011;19717;42.614;23.418;2022-12-07T13:47:13;9.95;;;5.53;;
33357;SDS011;19717;42.614;23.418;2022-12-07T13:51:49;5.75;;;3.08;;
33357;SDS011;19717;42.614;23.418;2022-12-07T13:54:16;6.38;;;2.88;;
33357;SDS011;19717;42.614;23.418;2022-12-07T13:56:42;5.45;;;4.13;;
33357;SDS011;19717;42.614;23.418;2022-12-07T13:59:16;6.13;;;2.95;;
33357;SDS011;19717;42.614;23.418;2022-12-07T14:01:44;5.63;;;3.35;;
33357;SDS011;19717;42.614;23.418;2022-12-07T14:06:50;5.10;;;2.45;;
33357;SDS011;19717;42.614;23.418;2022-12-07T14:11:42;9.60;;;3.85;;
33357;SDS011;19717;42.614;23.418;2022-12-07T14:14:14;6.18;;;3.72;;
33357;SDS011;19717;42.614;23.418;2022-12-07T14:16:41;5.18;;;2.88;;
33357;SDS011;19717;42.614;23.418;2022-12-07T14:19:38;6.85;;;3.92;;
33357;SDS011;19717;42.614;23.418;2022-12-07T14:22:06;21.33;;;9.60;;
33357;SDS011;19717;42.614;23.418;2022-12-07T14:24:41;17.00;;;7.80;;
33357;SDS011;19717;42.614;23.418;2022-12-07T14:27:15;8.45;;;5.13;;
33357;SDS011;19717;42.614;23.418;2022-12-07T14:29:42;5.88;;;3.75;;
33357;SDS011;19717;42.614;23.418;2022-12-07T14:32:19;8.77;;;4.70;;
33357;SDS011;19717;42.614;23.418;2022-12-07T14:34:55;4.80;;;3.65;;
33357;SDS011;19717;42.614;23.418;2022-12-07T14:37:22;8.38;;;4.43;;
33357;SDS011;19717;42.614;23.418;2022-12-07T14:39:48;5.60;;;2.38;;
33357;SDS011;19717;42.614;23.418;2022-12-07T14:42:14;4.75;;;3.83;;
33357;SDS011;19717;42.614;23.418;2022-12-07T14:44:40;10.88;;;3.47;;
33357;SDS011;19717;42.614;23.418;2022-12-07T14:47:08;9.00;;;4.28;;
33357;SDS011;19717;42.614;23.418;2022-12-07T14:49:35;6.47;;;3.35;;
33357;SDS011;19717;42.614;23.418;2022-12-07T14:52:01;6.15;;;3.65;;
33357;SDS011;19717;42.614;23.418;2022-12-07T14:54:29;4.70;;;3.20;;
33357;SDS011;19717;42.614;23.418;2022-12-07T14:56:56;5.97;;;3.50;;
33357;SDS011;19717;42.614;23.418;2022-12-07T14:59:22;12.43;;;5.07;;
33357;SDS011;19717;42.614;23.418;2022-12-07T15:01:49;18.88;;;7.65;;
33357;SDS011;19717;42.614;23.418;2022-12-07T15:04:15;11.68;;;6.95;;
33357;SDS011;19717;42.614;23.418;2022-12-07T15:06:41;5.63;;;3.65;;
33357;SDS011;19717;42.614;23.418;2022-12-07T15:09:09;6.35;;;3.10;;
33357;SDS011;19717;42.614;23.418;2022-12-07T15:11:36;8.35;;;5.10;;
33357;SDS011;19717;42.614;23.418;2022-12-07T15:14:02;7.22;;;3.60;;
33357;SDS011;19717;42.614;23.418;2022-12-07T15:16:36;4.40;;;1.80;;
33357;SDS011;19717;42.614;23.418;2022-12-07T15:19:02;5.95;;;4.32;;
33357;SDS011;19717;42.614;23.418;2022-12-07T15:21:28;10.55;;;5.13;;
33357;SDS011;19717;42.614;23.418;2022-12-07T15:23:54;7.00;;;4.32;;
33357;SDS011;19717;42.614;23.418;2022-12-07T15:26:20;7.47;;;4.70;;
33357;SDS011;19717;42.614;23.418;2022-12-07T15:28:47;12.35;;;6.60;;
33357;SDS011;19717;42.614;23.418;2022-12-07T15:31:13;20.95;;;9.02;;
33357;SDS011;19717;42.614;23.418;2022-12-07T15:33:40;34.47;;;14.40;;
33357;SDS011;19717;42.614;23.418;2022-12-07T15:36:06;16.88;;;9.68;;
33357;SDS011;19717;42.614;23.418;2022-12-07T15:38:32;13.73;;;6.55;;
33357;SDS011;19717;42.614;23.418;2022-12-07T15:40:58;18.10;;;7.05;;
33357;SDS011;19717;42.614;23.418;2022-12-07T15:43:24;7.25;;;3.58;;
33357;SDS011;19717;42.614;23.418;2022-12-07T15:46:08;7.18;;;3.58;;
33357;SDS011;19717;42.614;23.418;2022-12-07T15:48:34;1.75;;;1.25;;
33357;SDS011;19717;42.614;23.418;2022-12-07T15:51:02;4.80;;;2.03;;
33357;SDS011;19717;42.614;23.418;2022-12-07T15:53:28;13.25;;;3.75;;
33357;SDS011;19717;42.614;23.418;2022-12-07T15:55:54;9.65;;;4.72;;
33357;SDS011;19717;42.614;23.418;2022-12-07T15:58:22;6.45;;;3.28;;
33357;SDS011;19717;42.614;23.418;2022-12-07T16:00:48;3.17;;;1.50;;
33357;SDS011;19717;42.614;23.418;2022-12-07T16:03:14;12.60;;;6.85;;
33357;SDS011;19717;42.614;23.418;2022-12-07T16:05:41;6.68;;;4.82;;
33357;SDS011;19717;42.614;23.418;2022-12-07T16:08:07;3.40;;;2.45;;
33357;SDS011;19717;42.614;23.418;2022-12-07T16:10:33;8.30;;;2.05;;
33357;SDS011;19717;42.614;23.418;2022-12-07T16:12:59;12.55;;;7.57;;
33357;SDS011;19717;42.614;23.418;2022-12-07T16:15:28;14.38;;;7.22;;
33357;SDS011;19717;42.614;23.418;2022-12-07T16:17:54;4.47;;;4.05;;
33357;SDS011;19717;42.614;23.418;2022-12-07T16:20:20;6.75;;;3.45;;
33357;SDS011;19717;42.614;23.418;2022-12-07T16:22:46;6.45;;;4.22;;
33357;SDS011;19717;42.614;23.418;2022-12-07T16:25:12;3.75;;;3.30;;
33357;SDS011;19717;42.614;23.418;2022-12-07T16:27:39;4.28;;;2.92;;
33357;SDS011;19717;42.614;23.418;2022-12-07T16:30:05;10.18;;;5.88;;
33357;SDS011;19717;42.614;23.418;2022-12-07T16:32:31;7.88;;;2.15;;
33357;SDS011;19717;42.614;23.418;2022-12-07T16:34:57;3.03;;;2.25;;
33357;SDS011;19717;42.614;23.418;2022-12-07T16:37:23;5.65;;;2.33;;
33357;SDS011;19717;42.614;23.418;2022-12-07T16:39:50;5.85;;;1.85;;
33357;SDS011;19717;42.614;23.418;2022-12-07T16:42:16;3.00;;;1.95;;
33357;SDS011;19717;42.614;23.418;2022-12-07T16:44:43;6.95;;;2.05;;
33357;SDS011;19717;42.614;23.418;2022-12-07T16:47:09;11.13;;;4.93;;
33357;SDS011;19717;42.614;23.418;2022-12-07T16:49:38;14.07;;;9.02;;
33357;SDS011;19717;42.614;23.418;2022-12-07T16:52:04;13.13;;;8.30;;
33357;SDS011;19717;42.614;23.418;2022-12-07T16:54:30;18.33;;;6.47;;
33357;SDS011;19717;42.614;23.418;2022-12-07T16:57:00;20.45;;;6.40;;
33357;SDS011;19717;42.614;23.418;2022-12-07T16:59:30;43.35;;;12.88;;
33357;SDS011;19717;42.614;23.418;2022-12-07T17:01:56;3.72;;;2.05;;
33357;SDS011;19717;42.614;23.418;2022-12-07T17:04:25;6.65;;;2.97;;
33357;SDS011;19717;42.614;23.418;2022-12-07T17:06:52;6.43;;;2.53;;